createdAt,value
2019-03-05T00:00:42.713Z,55.85
2019-03-05T00:01:21.363Z,55.43
2019-03-05T00:01:59.138Z,55.02
2019-03-05T00:02:35.300Z,54.78
2019-03-05T00:03:11.512Z,54.61
2019-03-05T00:03:47.613Z,54.33
2019-03-05T00:04:23.751Z,54.04
2019-03-05T00:05:00.042Z,53.79
2019-03-05T00:05:36.375Z,53.48
2019-03-05T00:06:12.604Z,53.15
2019-03-05T00:06:48.850Z,52.90
2019-03-05T00:07:24.939Z,53.30
2019-03-05T00:08:01.036Z,53.64
2019-03-05T00:08:37.225Z,53.30
2019-03-05T00:09:20.892Z,52.99
2019-03-05T00:09:57.146Z,52.64
2019-03-05T00:10:33.312Z,51.73
2019-03-05T00:11:09.440Z,51.73
2019-03-05T00:11:45.565Z,51.69
2019-03-05T00:12:21.658Z,51.15
2019-03-05T00:12:57.979Z,52.55
2019-03-05T00:13:34.097Z,52.55
2019-03-05T00:14:10.246Z,52.29
2019-03-05T00:14:46.417Z,52.46
2019-03-05T00:15:25.737Z,53.24
2019-03-05T00:16:01.864Z,52.51
2019-03-05T00:16:38.037Z,53.29
2019-03-05T00:17:14.210Z,53.29
2019-03-05T00:17:50.383Z,53.36
2019-03-05T00:18:26.563Z,53.28
2019-03-05T00:19:02.779Z,53.28
2019-03-05T00:19:38.865Z,53.88
2019-03-05T00:20:15.006Z,53.94
2019-03-05T00:20:51.247Z,53.94
2019-03-05T00:21:27.485Z,54.39
2019-03-05T00:22:03.635Z,54.51
2019-03-05T00:22:39.739Z,54.69
2019-03-05T00:23:18.691Z,54.92
2019-03-05T00:24:17.605Z,55.26
2019-03-05T00:25:11.378Z,55.26
2019-03-05T00:25:47.542Z,55.06
2019-03-05T00:26:33.463Z,55.09
2019-03-05T00:27:09.811Z,55.09
2019-03-05T00:27:49.667Z,55.45
2019-03-05T00:28:33.440Z,55.48
2019-03-05T00:29:33.508Z,55.49
2019-03-05T00:30:20.637Z,55.54
2019-03-05T00:31:10.731Z,55.75
2019-03-05T00:31:47.018Z,55.78
2019-03-05T00:32:23.190Z,55.78
2019-03-05T00:33:12.701Z,55.97
2019-03-05T00:34:16.976Z,56.15
2019-03-05T00:35:24.767Z,56.15
2019-03-05T00:36:22.401Z,56.09
2019-03-05T00:37:11.593Z,56.05
2019-03-05T00:38:06.258Z,56.01
2019-03-05T00:39:19.891Z,56.01
2019-03-05T00:40:12.476Z,55.71
2019-03-05T00:41:13.265Z,56.00
2019-03-05T00:42:28.667Z,56.00
2019-03-05T00:43:13.629Z,55.46
2019-03-05T00:43:57.907Z,55.19
2019-03-05T00:44:56.734Z,55.20
2019-03-05T00:45:56.154Z,55.16
2019-03-05T00:47:10.930Z,55.07
2019-03-05T00:48:40.414Z,54.68
2019-03-05T00:50:07.108Z,54.49
2019-03-05T00:51:24.878Z,54.39
2019-03-05T00:52:35.763Z,54.12
2019-03-05T00:53:30.326Z,54.05
2019-03-05T00:54:33.830Z,54.15
2019-03-05T00:55:41.660Z,54.20
2019-03-05T00:56:42.487Z,53.85
2019-03-05T00:57:49.000Z,53.85
2019-03-05T00:58:35.381Z,53.65
2019-03-05T00:59:48.039Z,53.72
2019-03-05T01:01:16.581Z,53.71
2019-03-05T01:02:44.850Z,53.71
2019-03-05T01:03:52.964Z,53.84
2019-03-05T01:05:15.761Z,53.65
2019-03-05T01:06:13.316Z,53.65
2019-03-05T01:06:49.532Z,52.51
2019-03-05T01:07:26.197Z,52.51
2019-03-05T01:08:02.462Z,52.73
2019-03-05T01:08:38.749Z,52.75
2019-03-05T01:09:17.594Z,52.81
2019-03-05T01:09:53.738Z,52.80
2019-03-05T01:10:30.029Z,52.47
2019-03-05T01:11:06.146Z,52.47
2019-03-05T01:11:42.591Z,52.88
2019-03-05T01:12:20.218Z,52.88
2019-03-05T01:12:56.460Z,52.69
2019-03-05T01:13:32.580Z,52.73
2019-03-05T01:14:09.659Z,52.84
2019-03-05T01:14:45.836Z,52.93
2019-03-05T01:15:21.932Z,52.93
2019-03-05T01:15:58.046Z,53.20
2019-03-05T01:16:34.591Z,53.27
2019-03-05T01:17:10.800Z,53.40
2019-03-05T01:17:47.583Z,53.34
2019-03-05T01:18:27.286Z,53.21
2019-03-05T01:19:04.172Z,53.26
2019-03-05T01:19:40.310Z,53.20
2019-03-05T01:20:16.530Z,53.05
2019-03-05T01:20:52.806Z,53.00
2019-03-05T01:21:28.993Z,52.95
2019-03-05T01:22:05.351Z,52.77
2019-03-05T01:22:42.049Z,52.57
2019-03-05T01:23:18.679Z,52.46
2019-03-05T01:23:54.826Z,52.55
2019-03-05T01:24:31.073Z,52.59
2019-03-05T01:25:07.837Z,52.51
2019-03-05T01:25:44.160Z,52.40
2019-03-05T01:26:20.717Z,52.27
2019-03-05T01:26:56.830Z,52.23
2019-03-05T01:27:33.585Z,52.30
2019-03-05T01:28:09.828Z,52.13
2019-03-05T01:28:46.060Z,52.21
2019-03-05T01:29:22.222Z,52.29
2019-03-05T01:29:58.366Z,52.40
2019-03-05T01:30:56.947Z,52.28
2019-03-05T01:31:50.107Z,52.67
2019-03-05T01:32:42.972Z,52.54
2019-03-05T01:33:19.207Z,52.33
2019-03-05T01:34:00.447Z,52.08
2019-03-05T01:34:58.173Z,51.92
2019-03-05T01:35:38.636Z,51.71
2019-03-05T01:36:18.124Z,51.70
2019-03-05T01:36:57.130Z,51.48
2019-03-05T01:37:33.326Z,51.46
2019-03-05T01:38:09.652Z,51.29
2019-03-05T01:38:55.418Z,51.43
2019-03-05T01:39:35.850Z,51.40
2019-03-05T01:40:30.979Z,51.10
2019-03-05T01:41:09.189Z,51.33
2019-03-05T01:41:45.270Z,51.31
2019-03-05T01:42:21.493Z,51.02
2019-03-05T01:42:57.600Z,50.78
2019-03-05T01:43:33.765Z,50.77
2019-03-05T01:44:09.989Z,50.78
2019-03-05T01:44:46.656Z,50.83
2019-03-05T01:45:22.937Z,50.95
2019-03-05T01:45:59.051Z,51.04
2019-03-05T01:46:35.108Z,50.97
2019-03-05T01:47:11.361Z,50.91
2019-03-05T01:47:47.469Z,50.74
2019-03-05T01:48:23.663Z,50.60
2019-03-05T01:48:59.817Z,50.49
2019-03-05T01:49:35.921Z,50.41
2019-03-05T01:50:13.940Z,50.46
2019-03-05T01:50:50.079Z,50.46
2019-03-05T01:51:26.226Z,50.46
2019-03-05T01:52:02.346Z,50.53
2019-03-05T01:52:38.479Z,50.49
2019-03-05T01:53:14.655Z,50.52
2019-03-05T01:53:50.803Z,50.43
2019-03-05T01:54:26.883Z,50.23
2019-03-05T01:55:03.005Z,49.35
2019-03-05T01:55:39.268Z,49.27
2019-03-05T01:56:15.397Z,49.18
2019-03-05T01:56:51.485Z,49.11
2019-03-05T01:57:27.644Z,49.23
2019-03-05T01:58:03.794Z,49.13
2019-03-05T01:58:39.981Z,49.05
2019-03-05T01:59:16.162Z,49.04
2019-03-05T01:59:52.327Z,49.30
2019-03-05T02:00:28.635Z,49.34
2019-03-05T02:01:04.827Z,49.55
2019-03-05T02:01:41.021Z,49.49
2019-03-05T02:02:17.231Z,49.52
2019-03-05T02:02:53.386Z,49.54
2019-03-05T02:03:29.601Z,49.50
2019-03-05T02:04:06.197Z,49.74
2019-03-05T02:04:42.505Z,49.59
2019-03-05T02:05:20.484Z,49.25
2019-03-05T02:05:56.691Z,49.26
2019-03-05T02:06:32.906Z,49.32
2019-03-05T02:07:09.443Z,49.73
2019-03-05T02:07:45.562Z,49.83
2019-03-05T02:08:21.680Z,49.79
2019-03-05T02:08:57.864Z,49.96
2019-03-05T02:09:33.954Z,49.89
2019-03-05T02:10:16.170Z,49.78
2019-03-05T02:10:52.505Z,49.52
2019-03-05T02:11:28.665Z,49.23
2019-03-05T02:12:04.767Z,49.04
2019-03-05T02:12:41.062Z,48.86
2019-03-05T02:13:17.167Z,48.45
2019-03-05T02:13:53.294Z,48.47
2019-03-05T02:14:29.447Z,48.46
2019-03-05T02:15:05.836Z,48.53
2019-03-05T02:15:41.904Z,48.43
2019-03-05T02:16:18.000Z,48.20
2019-03-05T02:16:54.097Z,48.00
2019-03-05T02:17:30.683Z,47.93
2019-03-05T02:18:06.769Z,47.84
2019-03-05T02:18:42.926Z,47.75
2019-03-05T02:19:39.526Z,47.67
2019-03-05T02:20:25.998Z,47.89
2019-03-05T02:21:02.305Z,48.00
2019-03-05T02:21:38.420Z,47.76
2019-03-05T02:22:17.982Z,47.62
2019-03-05T02:23:09.015Z,47.54
2019-03-05T02:24:26.556Z,47.49
2019-03-05T02:25:38.387Z,47.41
2019-03-05T02:26:50.128Z,47.38
2019-03-05T02:28:01.641Z,47.44
2019-03-05T02:28:52.815Z,47.50
2019-03-05T02:29:59.750Z,47.65
2019-03-05T02:31:02.998Z,47.57
2019-03-05T02:32:21.545Z,47.35
2019-03-05T02:33:45.238Z,47.54
2019-03-05T02:34:47.860Z,47.28
2019-03-05T02:35:57.398Z,47.23
2019-03-05T02:36:44.884Z,47.13
2019-03-05T02:37:38.490Z,47.03
2019-03-05T02:38:25.632Z,47.33
2019-03-05T02:39:32.797Z,47.26
2019-03-05T02:40:28.960Z,47.04
2019-03-05T02:41:36.907Z,46.58
2019-03-05T02:42:56.168Z,46.72
2019-03-05T02:44:06.938Z,46.93
2019-03-05T02:45:20.633Z,47.22
2019-03-05T02:46:31.993Z,46.67
2019-03-05T02:47:51.941Z,46.07
2019-03-05T02:49:20.734Z,46.39
2019-03-05T02:50:37.212Z,46.75
2019-03-05T02:51:29.449Z,46.60
2019-03-05T02:52:41.338Z,46.55
2019-03-05T02:53:32.228Z,46.56
2019-03-05T02:54:44.600Z,46.28
2019-03-05T02:55:56.009Z,46.07
2019-03-05T02:57:08.159Z,45.95
2019-03-05T02:57:41.392Z,46.02
2019-03-05T02:58:14.746Z,45.87
2019-03-05T02:58:47.938Z,45.07
2019-03-05T02:59:24.032Z,44.49
2019-03-05T03:00:00.431Z,44.71
2019-03-05T03:00:55.458Z,45.12
2019-03-05T03:01:57.909Z,45.06
2019-03-05T03:02:45.699Z,44.26
2019-03-05T03:03:40.750Z,43.70
2019-03-05T03:04:17.698Z,43.58
2019-03-05T03:04:56.862Z,43.81
2019-03-05T03:05:37.106Z,43.99
2019-03-05T03:06:17.443Z,44.22
2019-03-05T03:06:53.940Z,44.05
2019-03-05T03:07:30.263Z,43.38
2019-03-05T03:08:06.567Z,43.65
2019-03-05T03:08:42.806Z,43.20
2019-03-05T03:09:53.344Z,42.96
2019-03-05T03:10:29.518Z,42.25
2019-03-05T03:11:05.805Z,42.23
2019-03-05T03:11:41.898Z,42.57
2019-03-05T03:12:18.680Z,43.07
2019-03-05T03:12:55.136Z,42.88
2019-03-05T03:13:31.343Z,42.76
2019-03-05T03:14:07.564Z,42.65
2019-03-05T03:14:43.682Z,42.13
2019-03-05T03:15:20.727Z,41.58
2019-03-05T03:15:56.800Z,41.80
2019-03-05T03:16:32.898Z,42.49
2019-03-05T03:17:09.066Z,43.06
2019-03-05T03:17:45.205Z,43.08
2019-03-05T03:18:21.370Z,43.13
2019-03-05T03:18:57.517Z,43.26
2019-03-05T03:19:33.786Z,43.27
2019-03-05T03:20:10.749Z,43.12
2019-03-05T03:20:46.995Z,42.99
2019-03-05T03:21:23.165Z,42.66
2019-03-05T03:21:59.355Z,42.40
2019-03-05T03:22:35.705Z,41.60
2019-03-05T03:23:11.851Z,40.66
2019-03-05T03:23:48.006Z,39.22
2019-03-05T03:24:24.143Z,37.58
2019-03-05T03:25:00.406Z,39.26
2019-03-05T03:25:36.600Z,40.46
2019-03-05T03:26:12.785Z,40.60
2019-03-05T03:26:49.076Z,40.38
2019-03-05T03:27:25.159Z,40.34
2019-03-05T03:28:01.462Z,40.20
2019-03-05T03:28:37.639Z,39.75
2019-03-05T03:29:13.796Z,39.80
2019-03-05T03:29:49.922Z,39.72
2019-03-05T03:30:27.153Z,39.35
2019-03-05T03:31:03.251Z,38.52
2019-03-05T03:31:39.373Z,38.38
2019-03-05T03:32:15.527Z,37.98
2019-03-05T03:32:51.689Z,37.70
2019-03-05T03:33:27.983Z,36.58
2019-03-05T03:34:04.095Z,35.57
2019-03-05T03:34:40.243Z,35.04
2019-03-05T03:35:16.945Z,34.51
2019-03-05T03:35:53.103Z,33.89
2019-03-05T03:36:29.206Z,34.06
2019-03-05T03:37:05.344Z,35.25
2019-03-05T03:37:41.447Z,35.78
2019-03-05T03:38:17.538Z,37.22
2019-03-05T03:38:53.669Z,37.42
2019-03-05T03:39:29.787Z,36.07
2019-03-05T03:40:06.879Z,33.57
2019-03-05T03:40:43.020Z,31.02
2019-03-05T03:41:19.232Z,30.86
2019-03-05T03:41:55.325Z,31.90
2019-03-05T03:42:31.479Z,32.98
2019-03-05T03:43:07.574Z,32.98
2019-03-05T03:43:43.866Z,33.48
2019-03-05T03:44:20.114Z,33.77
2019-03-05T03:44:56.222Z,32.50
2019-03-05T03:45:32.343Z,32.31
2019-03-05T03:46:08.565Z,32.52
2019-03-05T03:46:44.662Z,32.78
2019-03-05T03:47:20.766Z,33.28
2019-03-05T03:47:56.940Z,33.67
2019-03-05T03:48:33.034Z,33.96
2019-03-05T03:49:09.330Z,33.64
2019-03-05T03:49:45.531Z,33.31
2019-03-05T03:50:21.776Z,32.38
2019-03-05T03:50:57.938Z,31.94
2019-03-05T03:51:34.197Z,31.93
2019-03-05T03:52:10.352Z,31.85
2019-03-05T03:52:46.455Z,30.86
2019-03-05T03:53:22.542Z,30.82
2019-03-05T03:53:58.768Z,30.94
2019-03-05T03:54:34.887Z,31.10
2019-03-05T03:55:12.081Z,30.71
2019-03-05T03:55:48.249Z,30.15
2019-03-05T03:56:24.408Z,30.40
2019-03-05T03:57:00.511Z,30.27
2019-03-05T03:57:36.705Z,30.30
2019-03-05T03:58:12.880Z,29.36
2019-03-05T03:58:49.130Z,27.87
2019-03-05T03:59:25.271Z,27.26
2019-03-05T04:00:01.439Z,28.58
2019-03-05T04:00:37.548Z,29.48
2019-03-05T04:01:13.735Z,29.59
2019-03-05T04:01:49.836Z,29.13
2019-03-05T04:02:25.928Z,27.95
2019-03-05T04:03:02.062Z,27.84
2019-03-05T04:03:38.141Z,27.33
2019-03-05T04:04:14.277Z,27.81
2019-03-05T04:04:50.453Z,28.06
2019-03-05T04:05:26.723Z,28.26
2019-03-05T04:06:02.946Z,27.91
2019-03-05T04:06:39.141Z,26.51
2019-03-05T04:07:15.322Z,26.32
2019-03-05T04:07:51.561Z,25.10
2019-03-05T04:08:27.714Z,24.84
2019-03-05T04:09:04.117Z,25.32
2019-03-05T04:09:40.312Z,25.54
2019-03-05T04:10:16.456Z,25.45
2019-03-05T04:10:52.678Z,25.08
2019-03-05T04:11:28.808Z,25.31
2019-03-05T04:12:05.098Z,25.38
2019-03-05T04:12:41.212Z,25.80
2019-03-05T04:13:17.397Z,25.83
2019-03-05T04:13:53.492Z,25.98
2019-03-05T04:14:29.641Z,25.82
2019-03-05T04:15:05.867Z,25.79
2019-03-05T04:15:42.140Z,24.43
2019-03-05T04:16:18.331Z,23.55
2019-03-05T04:16:54.458Z,23.68
2019-03-05T04:17:30.617Z,23.60
2019-03-05T04:18:06.909Z,23.69
2019-03-05T04:18:43.030Z,24.20
2019-03-05T04:19:23.188Z,24.57
2019-03-05T04:19:59.331Z,24.80
2019-03-05T04:20:38.809Z,24.93
2019-03-05T04:21:15.045Z,25.46
2019-03-05T04:21:51.212Z,25.51
2019-03-05T04:22:27.401Z,24.85
2019-03-05T04:23:04.163Z,24.70
2019-03-05T04:23:40.316Z,24.55
2019-03-05T04:24:17.046Z,24.75
2019-03-05T04:24:53.199Z,24.76
2019-03-05T04:25:30.037Z,24.43
2019-03-05T04:26:10.023Z,24.84
2019-03-05T04:26:46.173Z,24.99
2019-03-05T04:27:22.405Z,25.06
2019-03-05T04:27:58.596Z,25.12
2019-03-05T04:28:34.775Z,25.24
2019-03-05T04:29:10.987Z,25.07
2019-03-05T04:29:47.846Z,25.04
2019-03-05T04:30:27.590Z,24.91
2019-03-05T04:31:04.299Z,24.72
2019-03-05T04:31:40.397Z,24.80
2019-03-05T04:32:16.490Z,25.09
2019-03-05T04:32:52.615Z,24.86
2019-03-05T04:33:28.807Z,24.92
2019-03-05T04:34:05.016Z,25.27
2019-03-05T04:34:41.220Z,25.49
2019-03-05T04:35:17.259Z,25.44
2019-03-05T04:35:53.440Z,25.65
2019-03-05T04:36:29.695Z,25.70
2019-03-05T04:37:05.928Z,26.20
2019-03-05T04:37:42.048Z,27.12
2019-03-05T04:38:18.221Z,26.51
2019-03-05T04:38:54.469Z,26.11
2019-03-05T04:39:30.584Z,25.97
2019-03-05T04:40:06.972Z,26.53
2019-03-05T04:40:43.233Z,26.57
2019-03-05T04:41:19.384Z,26.58
2019-03-05T04:41:55.463Z,26.90
2019-03-05T04:42:32.087Z,27.25
2019-03-05T04:43:11.760Z,26.82
2019-03-05T04:43:47.850Z,26.92
2019-03-05T04:44:42.767Z,27.50
2019-03-05T04:46:11.530Z,27.57
2019-03-05T04:46:54.306Z,27.66
2019-03-05T04:47:30.384Z,27.77
2019-03-05T04:48:06.768Z,27.67
2019-03-05T04:48:43.958Z,27.86
2019-03-05T04:49:31.061Z,27.67
2019-03-05T04:50:15.036Z,27.67
2019-03-05T04:50:54.750Z,27.14
2019-03-05T04:51:39.115Z,26.90
2019-03-05T04:52:17.944Z,26.70
2019-03-05T04:52:54.195Z,26.67
2019-03-05T04:53:30.301Z,25.92
2019-03-05T04:54:06.494Z,26.00
2019-03-05T04:54:42.596Z,26.03
2019-03-05T04:55:18.802Z,26.15
2019-03-05T04:55:54.942Z,26.54
2019-03-05T04:56:31.062Z,26.32
2019-03-05T04:57:07.825Z,26.16
2019-03-05T04:57:44.555Z,26.24
2019-03-05T04:58:21.274Z,26.35
2019-03-05T04:58:57.984Z,26.65
2019-03-05T04:59:34.744Z,26.80
2019-03-05T05:00:14.340Z,26.57
2019-03-05T05:00:50.615Z,26.61
2019-03-05T05:01:26.805Z,26.81
2019-03-05T05:02:02.949Z,26.94
2019-03-05T05:02:39.073Z,26.88
2019-03-05T05:03:15.422Z,26.50
2019-03-05T05:03:51.654Z,26.37
2019-03-05T05:04:27.764Z,26.41
2019-03-05T05:05:03.904Z,26.73
2019-03-05T05:05:40.054Z,26.84
2019-03-05T05:06:16.218Z,27.21
2019-03-05T05:06:52.373Z,27.19
2019-03-05T05:07:28.503Z,27.19
2019-03-05T05:08:04.659Z,27.73
2019-03-05T05:08:40.810Z,27.53
2019-03-05T05:09:16.923Z,27.34
2019-03-05T05:09:53.201Z,27.40
2019-03-05T05:10:29.313Z,27.60
2019-03-05T05:11:05.475Z,27.08
2019-03-05T05:11:41.630Z,26.96
2019-03-05T05:12:17.859Z,27.14
2019-03-05T05:12:54.016Z,27.00
2019-03-05T05:13:30.129Z,26.88
2019-03-05T05:14:06.318Z,27.16
2019-03-05T05:14:42.507Z,27.88
2019-03-05T05:15:29.898Z,28.14
2019-03-05T05:16:06.044Z,27.88
2019-03-05T05:16:42.239Z,27.73
2019-03-05T05:17:18.411Z,27.71
2019-03-05T05:17:54.508Z,27.51
2019-03-05T05:18:30.631Z,27.60
2019-03-05T05:19:06.980Z,27.80
2019-03-05T05:19:43.082Z,27.81
2019-03-05T05:20:19.221Z,28.14
2019-03-05T05:20:55.369Z,28.30
2019-03-05T05:21:31.516Z,28.45
2019-03-05T05:22:07.750Z,28.81
2019-03-05T05:22:43.894Z,28.79
2019-03-05T05:23:20.059Z,28.84
2019-03-05T05:23:56.233Z,28.87
2019-03-05T05:24:32.466Z,28.67
2019-03-05T05:25:08.616Z,28.44
2019-03-05T05:25:44.768Z,28.70
2019-03-05T05:26:20.893Z,28.71
2019-03-05T05:26:57.053Z,28.77
2019-03-05T05:27:33.156Z,28.97
2019-03-05T05:28:09.293Z,29.06
2019-03-05T05:28:45.473Z,28.88
2019-03-05T05:29:21.580Z,28.25
2019-03-05T05:29:57.669Z,28.58
2019-03-05T05:30:38.027Z,28.48
2019-03-05T05:31:14.147Z,28.49
2019-03-05T05:31:50.317Z,28.42
2019-03-05T05:32:26.400Z,28.37
2019-03-05T05:33:02.718Z,28.91
2019-03-05T05:33:38.920Z,29.10
2019-03-05T05:34:15.038Z,29.19
2019-03-05T05:34:51.277Z,29.26
2019-03-05T05:35:27.351Z,29.22
2019-03-05T05:36:03.585Z,29.31
2019-03-05T05:36:39.777Z,29.60
2019-03-05T05:37:15.973Z,29.41
2019-03-05T05:37:51.998Z,29.34
2019-03-05T05:38:28.225Z,29.27
2019-03-05T05:39:04.830Z,29.24
2019-03-05T05:40:15.151Z,29.28
2019-03-05T05:40:51.270Z,29.25
2019-03-05T05:41:27.425Z,29.29
2019-03-05T05:42:03.567Z,29.29
2019-03-05T05:42:39.816Z,29.00
2019-03-05T05:43:21.219Z,28.95
2019-03-05T05:43:57.521Z,29.27
2019-03-05T05:44:33.675Z,29.33
2019-03-05T05:45:13.696Z,28.85
2019-03-05T05:45:51.328Z,28.89
2019-03-05T05:46:27.509Z,29.11
2019-03-05T05:47:03.626Z,29.10
2019-03-05T05:47:39.779Z,28.79
2019-03-05T05:48:15.919Z,28.71
2019-03-05T05:48:52.051Z,28.91
2019-03-05T05:49:28.176Z,29.15
2019-03-05T05:50:04.269Z,29.50
2019-03-05T05:50:40.380Z,29.56
2019-03-05T05:51:16.510Z,29.24
2019-03-05T05:51:52.592Z,29.39
2019-03-05T05:52:28.705Z,29.04
2019-03-05T05:53:04.965Z,28.93
2019-03-05T05:53:41.060Z,29.03
2019-03-05T05:54:17.170Z,29.50
2019-03-05T05:54:53.325Z,29.54
2019-03-05T05:55:29.493Z,29.54
2019-03-05T05:56:05.779Z,29.59
2019-03-05T05:56:41.874Z,29.57
2019-03-05T05:57:17.949Z,29.24
2019-03-05T05:57:54.080Z,29.34
2019-03-05T05:58:30.826Z,29.58
2019-03-05T05:59:07.587Z,29.65
2019-03-05T05:59:43.919Z,29.68
2019-03-05T06:00:20.333Z,29.75
2019-03-05T06:00:57.826Z,29.42
2019-03-05T06:01:33.913Z,29.36
2019-03-05T06:02:10.081Z,29.58
2019-03-05T06:02:46.215Z,29.30
2019-03-05T06:03:22.428Z,29.24
2019-03-05T06:03:58.536Z,29.15
2019-03-05T06:04:34.677Z,28.91
2019-03-05T06:05:10.997Z,28.82
2019-03-05T06:05:47.195Z,29.02
2019-03-05T06:06:23.380Z,29.19
2019-03-05T06:06:59.554Z,29.30
2019-03-05T06:07:35.777Z,29.12
2019-03-05T06:08:11.911Z,29.10
2019-03-05T06:08:48.070Z,29.17
2019-03-05T06:09:24.219Z,29.40
2019-03-05T06:10:00.495Z,29.40
2019-03-05T06:10:36.698Z,29.24
2019-03-05T06:11:12.882Z,29.28
2019-03-05T06:11:49.000Z,29.35
2019-03-05T06:12:25.063Z,29.07
2019-03-05T06:13:01.251Z,29.13
2019-03-05T06:13:37.558Z,29.25
2019-03-05T06:14:13.679Z,29.39
2019-03-05T06:14:49.779Z,29.54
2019-03-05T06:15:25.955Z,29.20
2019-03-05T06:16:02.118Z,29.19
2019-03-05T06:16:38.213Z,29.25
2019-03-05T06:17:14.404Z,29.24
2019-03-05T06:17:50.592Z,29.41
2019-03-05T06:18:26.907Z,29.21
2019-03-05T06:19:03.213Z,29.26
2019-03-05T06:19:39.356Z,29.21
2019-03-05T06:20:15.776Z,29.27
2019-03-05T06:20:51.922Z,29.61
2019-03-05T06:21:28.106Z,29.88
2019-03-05T06:22:04.245Z,29.86
2019-03-05T06:22:40.406Z,29.86
2019-03-05T06:23:16.534Z,29.85
2019-03-05T06:23:52.614Z,29.95
2019-03-05T06:24:28.833Z,29.92
2019-03-05T06:25:05.125Z,30.00
2019-03-05T06:25:41.276Z,30.06
2019-03-05T06:26:17.425Z,30.26
2019-03-05T06:26:53.591Z,30.34
2019-03-05T06:27:29.724Z,30.37
2019-03-05T06:28:05.911Z,30.32
2019-03-05T06:28:42.219Z,30.24
2019-03-05T06:29:18.474Z,30.32
2019-03-05T06:29:54.646Z,30.36
2019-03-05T06:30:30.933Z,30.66
2019-03-05T06:31:07.081Z,30.60
2019-03-05T06:31:43.362Z,30.59
2019-03-05T06:32:19.505Z,30.51
2019-03-05T06:32:55.662Z,30.77
2019-03-05T06:33:31.782Z,30.89
2019-03-05T06:34:07.965Z,30.99
2019-03-05T06:34:44.083Z,30.97
2019-03-05T06:35:20.197Z,30.88
2019-03-05T06:35:56.357Z,30.98
2019-03-05T06:36:53.275Z,30.97
2019-03-05T06:37:29.465Z,30.98
2019-03-05T06:38:05.702Z,31.17
2019-03-05T06:38:42.436Z,31.26
2019-03-05T06:39:27.275Z,31.24
2019-03-05T06:40:03.474Z,31.60
2019-03-05T06:40:40.194Z,31.64
2019-03-05T06:41:16.962Z,31.73
2019-03-05T06:41:53.731Z,31.73
2019-03-05T06:42:29.856Z,31.80
2019-03-05T06:43:06.472Z,31.62
2019-03-05T06:43:42.670Z,31.80
2019-03-05T06:44:18.834Z,31.96
2019-03-05T06:44:54.980Z,32.24
2019-03-05T06:45:31.325Z,31.96
2019-03-05T06:46:07.498Z,31.95
2019-03-05T06:46:43.665Z,32.17
2019-03-05T06:47:19.934Z,32.34
2019-03-05T06:47:56.041Z,32.23
2019-03-05T06:48:32.175Z,32.25
2019-03-05T06:49:08.271Z,32.29
2019-03-05T06:49:44.466Z,32.34
2019-03-05T06:50:21.296Z,32.16
2019-03-05T06:50:57.473Z,32.28
2019-03-05T06:51:33.616Z,32.60
2019-03-05T06:52:11.733Z,32.69
2019-03-05T06:52:47.595Z,32.58
2019-03-05T06:53:23.807Z,32.79
2019-03-05T06:53:59.991Z,32.86
2019-03-05T06:54:36.137Z,32.85
2019-03-05T06:55:13.015Z,33.38
2019-03-05T06:55:49.119Z,33.48
2019-03-05T06:56:25.436Z,33.25
2019-03-05T06:57:01.706Z,33.46
2019-03-05T06:57:37.866Z,33.43
2019-03-05T06:58:14.067Z,33.49
2019-03-05T06:58:50.134Z,33.34
2019-03-05T06:59:26.328Z,33.28
2019-03-05T07:00:02.501Z,33.60
2019-03-05T07:00:39.483Z,33.57
2019-03-05T07:01:15.766Z,33.54
2019-03-05T07:01:51.866Z,33.27
2019-03-05T07:02:28.105Z,33.27
2019-03-05T07:03:04.463Z,33.32
2019-03-05T07:03:40.655Z,33.65
2019-03-05T07:04:16.778Z,33.71
2019-03-05T07:04:58.667Z,33.68
2019-03-05T07:06:08.861Z,33.68
2019-03-05T07:06:55.272Z,33.82
2019-03-05T07:07:32.757Z,34.01
2019-03-05T07:08:08.950Z,34.30
2019-03-05T07:08:48.819Z,34.18
2019-03-05T07:09:48.528Z,34.23
2019-03-05T07:10:43.055Z,34.22
2019-03-05T07:11:53.636Z,34.09
2019-03-05T07:12:46.168Z,34.07
2019-03-05T07:13:23.583Z,34.45
2019-03-05T07:14:00.818Z,34.50
2019-03-05T07:14:59.183Z,34.82
2019-03-05T07:16:15.863Z,35.08
2019-03-05T07:17:09.372Z,35.21
2019-03-05T07:17:49.442Z,35.15
2019-03-05T07:18:29.112Z,35.44
2019-03-05T07:19:22.058Z,35.52
2019-03-05T07:20:19.514Z,35.44
2019-03-05T07:21:28.385Z,35.44
2019-03-05T07:22:49.672Z,35.64
2019-03-05T07:23:47.070Z,35.68
2019-03-05T07:24:48.120Z,35.92
2019-03-05T07:25:24.284Z,36.20
2019-03-05T07:26:00.401Z,36.29
2019-03-05T07:26:36.522Z,36.40
2019-03-05T07:27:13.019Z,36.53
2019-03-05T07:27:55.934Z,36.58
2019-03-05T07:28:32.078Z,36.39
2019-03-05T07:29:08.259Z,36.38
2019-03-05T07:29:44.884Z,36.41
2019-03-05T07:30:25.540Z,36.31
2019-03-05T07:31:01.735Z,36.33
2019-03-05T07:31:38.024Z,36.43
2019-03-05T07:32:14.171Z,36.55
2019-03-05T07:32:50.424Z,36.57
2019-03-05T07:33:26.484Z,36.64
2019-03-05T07:34:02.719Z,36.50
2019-03-05T07:34:40.266Z,36.37
2019-03-05T07:35:19.294Z,36.32
2019-03-05T07:35:55.382Z,36.51
2019-03-05T07:36:31.590Z,36.62
2019-03-05T07:37:08.607Z,36.66
2019-03-05T07:37:44.784Z,36.85
2019-03-05T07:38:21.032Z,37.13
2019-03-05T07:38:57.098Z,37.04
2019-03-05T07:39:33.371Z,36.86
2019-03-05T07:40:09.956Z,36.72
2019-03-05T07:40:46.756Z,36.73
2019-03-05T07:41:23.551Z,36.88
2019-03-05T07:42:03.337Z,36.68
2019-03-05T07:42:40.092Z,36.36
2019-03-05T07:43:16.886Z,36.45
2019-03-05T07:43:57.181Z,36.51
2019-03-05T07:44:33.560Z,35.98
2019-03-05T07:45:10.993Z,36.11
2019-03-05T07:45:47.904Z,36.50
2019-03-05T07:46:24.197Z,36.79
2019-03-05T07:47:00.312Z,37.26
2019-03-05T07:47:36.419Z,37.57
2019-03-05T07:48:12.631Z,37.31
2019-03-05T07:48:48.757Z,37.31
2019-03-05T07:49:24.854Z,37.32
2019-03-05T07:50:00.998Z,36.90
2019-03-05T07:50:37.119Z,36.88
2019-03-05T07:51:13.295Z,37.08
2019-03-05T07:51:49.397Z,37.48
2019-03-05T07:52:25.565Z,37.71
2019-03-05T07:53:01.721Z,37.88
2019-03-05T07:53:37.839Z,37.62
2019-03-05T07:54:14.629Z,37.20
2019-03-05T07:54:52.491Z,36.96
2019-03-05T07:55:28.725Z,36.96
2019-03-05T07:56:04.838Z,37.06
2019-03-05T07:56:40.938Z,37.24
2019-03-05T07:57:17.089Z,37.34
2019-03-05T07:57:53.341Z,37.53
2019-03-05T07:58:29.607Z,38.07
2019-03-05T07:59:05.712Z,38.21
2019-03-05T07:59:41.718Z,38.36
2019-03-05T08:00:19.865Z,38.47
2019-03-05T08:00:56.106Z,38.23
2019-03-05T08:01:32.267Z,38.11
2019-03-05T08:02:08.439Z,38.18
2019-03-05T08:02:45.240Z,38.04
2019-03-05T08:03:21.549Z,38.50
2019-03-05T08:03:57.731Z,38.75
2019-03-05T08:04:34.023Z,38.91
2019-03-05T08:05:12.340Z,39.00
2019-03-05T08:05:48.563Z,39.18
2019-03-05T08:06:24.706Z,39.38
2019-03-05T08:07:00.778Z,39.21
2019-03-05T08:07:36.910Z,39.23
2019-03-05T08:08:47.233Z,39.55
2019-03-05T08:09:36.969Z,39.61
2019-03-05T08:10:24.932Z,39.62
2019-03-05T08:11:01.201Z,39.77
2019-03-05T08:11:37.451Z,39.61
2019-03-05T08:12:56.512Z,39.53
2019-03-05T08:14:10.425Z,39.54
2019-03-05T08:15:32.260Z,39.75
2019-03-05T08:16:16.586Z,40.15
2019-03-05T08:16:52.698Z,39.98
2019-03-05T08:17:28.846Z,39.84
2019-03-05T08:18:05.048Z,40.12
2019-03-05T08:18:41.133Z,40.25
2019-03-05T08:19:17.245Z,40.33
2019-03-05T08:19:53.250Z,40.40
2019-03-05T08:20:29.571Z,40.75
2019-03-05T08:21:05.702Z,40.91
2019-03-05T08:21:41.814Z,40.99
2019-03-05T08:22:17.883Z,40.85
2019-03-05T08:22:53.960Z,40.77
2019-03-05T08:23:30.182Z,40.74
2019-03-05T08:24:06.383Z,40.75
2019-03-05T08:24:42.471Z,40.74
2019-03-05T08:25:18.615Z,40.93
2019-03-05T08:25:54.747Z,41.02
2019-03-05T08:26:30.877Z,41.03
2019-03-05T08:27:06.982Z,41.07
2019-03-05T08:27:43.153Z,41.03
2019-03-05T08:28:19.387Z,40.99
2019-03-05T08:28:55.496Z,41.04
2019-03-05T08:29:31.638Z,40.92
2019-03-05T08:30:14.283Z,40.88
2019-03-05T08:30:47.675Z,40.86
2019-03-05T08:31:23.810Z,40.82
2019-03-05T08:31:59.918Z,40.78
2019-03-05T08:32:36.086Z,40.69
2019-03-05T08:33:12.210Z,40.58
2019-03-05T08:33:48.339Z,40.52
2019-03-05T08:34:24.538Z,40.58
2019-03-05T08:35:00.716Z,40.51
2019-03-05T08:35:36.829Z,40.57
2019-03-05T08:36:12.893Z,40.53
2019-03-05T08:36:49.053Z,40.47
2019-03-05T08:37:25.228Z,40.18
2019-03-05T08:38:01.403Z,40.53
2019-03-05T08:38:37.589Z,40.42
2019-03-05T08:39:14.140Z,40.22